PWSweather.com
Personal Weather Stations
Station Observations

YeovilGB

Lat: 50.949, Lon: -2.627

Elevation: 70

Station Type: Vantage Pro

http://www.yeovil-weather.me.uk/

High Low Average
Temperature 44.7°F7.1°C 33.9°F1.1°C 38.0°F3.3°C
Dew Point 36.7°F2.6°C 28.6°F-1.9°C 32.8°F0.4°C
Winds 6.9 mph 11.1 kmh Calm Calm 1.0 mph NW1.6 kmh NW
Wind Gusts 11.5 mph18.5 kmh -- 4.0 mph6.4 kmh
Humidity 88% 72% 81%
Pressure 30.38 in1028.8 mb 30.04 in1017.3 mb -
Precipitation 0.00 in0.0 mm - -
Hour Temp Dew Point Humidity Winds Wind Gusts Pressure Precip Precip Rate Daily Precip Total
12:00 AM 34.7°F1.5°C 28.6°F-1.9°C 78% 4.6 mph NW7.4 kmh NW 10.4 mph16.7 kmh 30.04 in1017.3 mb - 0.00 in0.0 mm 0.00 in0.0 mm
12:10 AM 34.8°F1.6°C 28.6°F-1.9°C 78% 3.5 mph NW5.6 kmh NW 8.1 mph13.0 kmh 30.04 in1017.3 mb - 0.00 in0.0 mm 0.00 in0.0 mm
12:20 AM 34.8°F1.6°C 28.7°F-1.8°C 78% 3.5 mph NW5.6 kmh NW 6.9 mph11.1 kmh 30.04 in1017.3 mb - 0.00 in0.0 mm 0.00 in0.0 mm
12:30 AM 34.8°F1.6°C 28.6°F-1.9°C 78% 1.2 mph NNW1.9 kmh NNW 4.6 mph7.4 kmh 30.04 in1017.3 mb - 0.00 in0.0 mm 0.00 in0.0 mm
12:40 AM 34.7°F1.5°C 28.8°F-1.8°C 79% 4.6 mph WNW7.4 kmh WNW 5.8 mph9.3 kmh 30.05 in1017.6 mb - 0.00 in0.0 mm 0.00 in0.0 mm
12:50 AM 34.7°F1.5°C 28.8°F-1.8°C 79% 1.2 mph NNW1.9 kmh NNW 4.6 mph7.4 kmh 30.05 in1017.6 mb - 0.00 in0.0 mm 0.00 in0.0 mm
01:00 AM 34.7°F1.5°C 28.9°F-1.7°C 79% 2.3 mph NNW3.7 kmh NNW 9.2 mph14.8 kmh 30.05 in1017.6 mb - 0.00 in0.0 mm 0.00 in0.0 mm
01:10 AM 34.8°F1.6°C 29.0°F-1.7°C 79% 3.5 mph NW5.6 kmh NW 11.5 mph18.5 kmh 30.05 in1017.6 mb - 0.00 in0.0 mm 0.00 in0.0 mm
01:20 AM 35.0°F1.7°C 29.1°F-1.6°C 79% 3.5 mph NW5.6 kmh NW 9.2 mph14.8 kmh 30.05 in1017.6 mb - 0.00 in0.0 mm 0.00 in0.0 mm
01:30 AM 35.1°F1.7°C 29.2°F-1.6°C 79% 1.2 mph NW1.9 kmh NW 2.3 mph3.7 kmh 30.05 in1017.6 mb - 0.00 in0.0 mm 0.00 in0.0 mm
01:40 AM 35.3°F1.8°C 29.4°F-1.4°C 79% 1.2 mph NW1.9 kmh NW 3.5 mph5.6 kmh 30.06 in1017.9 mb - 0.00 in0.0 mm 0.00 in0.0 mm
01:50 AM 35.4°F1.9°C 29.2°F-1.6°C 78% 2.3 mph NW3.7 kmh NW 9.2 mph14.8 kmh 30.06 in1017.9 mb - 0.00 in0.0 mm 0.00 in0.0 mm
02:00 AM 35.5°F1.9°C 29.3°F-1.5°C 78% 2.3 mph WNW3.7 kmh WNW 4.6 mph7.4 kmh 30.06 in1017.9 mb - 0.00 in0.0 mm 0.00 in0.0 mm
02:10 AM 35.3°F1.8°C 29.1°F-1.6°C 78% 3.5 mph WNW5.6 kmh WNW 6.9 mph11.1 kmh 30.07 in1018.3 mb - 0.00 in0.0 mm 0.00 in0.0 mm
02:20 AM 35.2°F1.8°C 29.3°F-1.5°C 79% 1.2 mph NW1.9 kmh NW 4.6 mph7.4 kmh 30.07 in1018.3 mb - 0.00 in0.0 mm 0.00 in0.0 mm
02:30 AM 35.2°F1.8°C 29.3°F-1.5°C 79% Calm Calm 3.5 mph5.6 kmh 30.07 in1018.3 mb - 0.00 in0.0 mm 0.00 in0.0 mm
02:40 AM 35.1°F1.7°C 29.2°F-1.6°C 79% 3.5 mph WNW5.6 kmh WNW 6.9 mph11.1 kmh 30.08 in1018.6 mb - 0.00 in0.0 mm 0.00 in0.0 mm
02:50 AM 35.1°F1.7°C 29.6°F-1.3°C 80% 2.3 mph WNW3.7 kmh WNW 5.8 mph9.3 kmh 30.08 in1018.6 mb - 0.00 in0.0 mm 0.00 in0.0 mm
03:00 AM 35.1°F1.7°C 29.6°F-1.3°C 80% 3.5 mph NW5.6 kmh NW 8.1 mph13.0 kmh 30.08 in1018.6 mb - 0.00 in0.0 mm 0.00 in0.0 mm
03:10 AM 35.2°F1.8°C 29.6°F-1.3°C 80% 2.3 mph NW3.7 kmh NW 6.9 mph11.1 kmh 30.08 in1018.6 mb - 0.00 in0.0 mm 0.00 in0.0 mm
03:20 AM 35.1°F1.7°C 29.6°F-1.3°C 80% 3.5 mph W5.6 kmh W 9.2 mph14.8 kmh 30.08 in1018.6 mb - 0.00 in0.0 mm 0.00 in0.0 mm
03:30 AM 35.0°F1.7°C 29.5°F-1.4°C 80% Calm Calm 4.6 mph7.4 kmh 30.08 in1018.6 mb - 0.00 in0.0 mm 0.00 in0.0 mm
03:40 AM 35.0°F1.7°C 29.8°F-1.2°C 81% Calm Calm 2.3 mph3.7 kmh 30.09 in1019.0 mb - 0.00 in0.0 mm 0.00 in0.0 mm
03:50 AM 35.1°F1.7°C 29.8°F-1.2°C 81% 1.2 mph W1.9 kmh W 5.8 mph9.3 kmh 30.09 in1019.0 mb - 0.00 in0.0 mm 0.00 in0.0 mm
04:00 AM 35.3°F1.8°C 30.1°F-1.1°C 81% 1.2 mph W1.9 kmh W 2.3 mph3.7 kmh 30.09 in1019.0 mb - 0.00 in0.0 mm 0.00 in0.0 mm
04:10 AM 35.5°F1.9°C 30.2°F-1.0°C 81% 1.2 mph WNW1.9 kmh WNW 5.8 mph9.3 kmh 30.09 in1019.0 mb - 0.00 in0.0 mm 0.00 in0.0 mm
04:20 AM 35.6°F2.0°C 30.3°F-0.9°C 81% Calm Calm 1.2 mph1.9 kmh 30.09 in1019.0 mb - 0.00 in0.0 mm 0.00 in0.0 mm
04:30 AM 35.6°F2.0°C 30.3°F-0.9°C 81% Calm Calm -- 30.09 in1019.0 mb - 0.00 in0.0 mm 0.00 in0.0 mm
04:40 AM 35.4°F1.9°C 30.2°F-1.0°C 81% Calm Calm 2.3 mph3.7 kmh 30.10 in1019.3 mb - 0.00 in0.0 mm 0.00 in0.0 mm
04:50 AM 35.0°F1.7°C 29.8°F-1.2°C 81% Calm Calm -- 30.10 in1019.3 mb - 0.00 in0.0 mm 0.00 in0.0 mm
05:00 AM 34.8°F1.6°C 29.9°F-1.2°C 82% Calm Calm -- 30.11 in1019.6 mb - 0.00 in0.0 mm 0.00 in0.0 mm
05:10 AM 34.8°F1.6°C 30.2°F-1.0°C 83% 1.2 mph NW1.9 kmh NW 5.8 mph9.3 kmh 30.11 in1019.6 mb - 0.00 in0.0 mm 0.00 in0.0 mm
05:20 AM 35.0°F1.7°C 30.4°F-0.9°C 83% 1.2 mph NNW1.9 kmh NNW 4.6 mph7.4 kmh 30.11 in1019.6 mb - 0.00 in0.0 mm 0.00 in0.0 mm
05:30 AM 35.2°F1.8°C 30.6°F-0.8°C 83% 6.9 mph NW11.1 kmh NW 8.1 mph13.0 kmh 30.11 in1019.6 mb - 0.00 in0.0 mm 0.00 in0.0 mm
05:40 AM 35.3°F1.8°C 30.7°F-0.7°C 83% 1.2 mph NNW1.9 kmh NNW 1.2 mph1.9 kmh 30.12 in1020.0 mb - 0.00 in0.0 mm 0.00 in0.0 mm
05:50 AM 35.3°F1.8°C 30.7°F-0.7°C 83% 1.2 mph NW1.9 kmh NW 4.6 mph7.4 kmh 30.12 in1020.0 mb - 0.00 in0.0 mm 0.00 in0.0 mm
06:00 AM 35.4°F1.9°C 30.8°F-0.7°C 83% Calm Calm 3.5 mph5.6 kmh 30.13 in1020.3 mb - 0.00 in0.0 mm 0.00 in0.0 mm
06:10 AM 35.3°F1.8°C 30.7°F-0.7°C 83% Calm Calm -- 30.14 in1020.7 mb - 0.00 in0.0 mm 0.00 in0.0 mm
06:20 AM 35.3°F1.8°C 30.9°F-0.6°C 84% Calm Calm 4.6 mph7.4 kmh 30.14 in1020.7 mb - 0.00 in0.0 mm 0.00 in0.0 mm
06:30 AM 35.1°F1.7°C 30.8°F-0.7°C 84% 4.6 mph NW7.4 kmh NW 6.9 mph11.1 kmh 30.14 in1020.7 mb - 0.00 in0.0 mm 0.00 in0.0 mm
06:40 AM 35.1°F1.7°C 30.8°F-0.7°C 84% 2.3 mph NW3.7 kmh NW 3.5 mph5.6 kmh 30.14 in1020.7 mb - 0.00 in0.0 mm 0.00 in0.0 mm
06:50 AM 35.2°F1.8°C 31.1°F-0.5°C 85% 1.2 mph NW1.9 kmh NW 3.5 mph5.6 kmh 30.15 in1021.0 mb - 0.00 in0.0 mm 0.00 in0.0 mm
07:00 AM 35.0°F1.7°C 30.9°F-0.6°C 85% Calm Calm -- 30.15 in1021.0 mb - 0.00 in0.0 mm 0.00 in0.0 mm
07:10 AM 34.7°F1.5°C 30.4°F-0.9°C 84% Calm Calm -- 30.16 in1021.3 mb - 0.00 in0.0 mm 0.00 in0.0 mm
07:20 AM 34.4°F1.3°C 30.3°F-0.9°C 85% Calm Calm -- 30.16 in1021.3 mb - 0.00 in0.0 mm 0.00 in0.0 mm
07:30 AM 34.1°F1.2°C 30.4°F-0.9°C 86% Calm Calm 1.2 mph1.9 kmh 30.17 in1021.7 mb - 0.00 in0.0 mm 0.00 in0.0 mm
07:40 AM 34.0°F1.1°C 30.3°F-0.9°C 86% Calm Calm -- 30.18 in1022.0 mb - 0.00 in0.0 mm 0.00 in0.0 mm
07:50 AM 33.9°F1.1°C 30.4°F-0.9°C 87% 1.2 mph NW1.9 kmh NW 5.8 mph9.3 kmh 30.18 in1022.0 mb - 0.00 in0.0 mm 0.00 in0.0 mm
08:00 AM 34.0°F1.1°C 30.5°F-0.8°C 87% 1.2 mph NNW1.9 kmh NNW 4.6 mph7.4 kmh 30.19 in1022.4 mb - 0.00 in0.0 mm 0.00 in0.0 mm
08:10 AM 34.0°F1.1°C 30.5°F-0.8°C 87% Calm Calm 1.2 mph1.9 kmh 30.19 in1022.4 mb - 0.00 in0.0 mm 0.00 in0.0 mm
08:20 AM 34.1°F1.2°C 30.9°F-0.6°C 88% Calm Calm -- 30.20 in1022.7 mb - 0.00 in0.0 mm 0.00 in0.0 mm
08:30 AM 34.2°F1.2°C 31.0°F-0.6°C 88% Calm Calm 1.2 mph1.9 kmh 30.20 in1022.7 mb - 0.00 in0.0 mm 0.00 in0.0 mm
08:40 AM 34.5°F1.4°C 31.3°F-0.4°C 88% Calm Calm -- 30.20 in1022.7 mb - 0.00 in0.0 mm 0.00 in0.0 mm
08:50 AM 34.8°F1.6°C 31.6°F-0.2°C 88% Calm Calm -- 30.21 in1023.0 mb - 0.00 in0.0 mm 0.00 in0.0 mm
09:00 AM 35.1°F1.7°C 31.9°F-0.1°C 88% Calm Calm 1.2 mph1.9 kmh 30.22 in1023.4 mb - 0.00 in0.0 mm 0.00 in0.0 mm
09:10 AM 35.6°F2.0°C 32.1°F0.1°C 87% Calm Calm 3.5 mph5.6 kmh 30.22 in1023.4 mb - 0.00 in0.0 mm 0.00 in0.0 mm
09:20 AM 36.1°F2.3°C 32.6°F0.3°C 87% Calm Calm -- 30.23 in1023.7 mb - 0.00 in0.0 mm 0.00 in0.0 mm
09:30 AM 36.3°F2.4°C 32.5°F0.3°C 86% Calm Calm -- 30.23 in1023.7 mb - 0.00 in0.0 mm 0.00 in0.0 mm
09:40 AM 36.7°F2.6°C 32.9°F0.5°C 86% Calm Calm 1.2 mph1.9 kmh 30.24 in1024.0 mb - 0.00 in0.0 mm 0.00 in0.0 mm
09:50 AM 37.3°F2.9°C 33.2°F0.7°C 85% Calm Calm -- 30.25 in1024.4 mb - 0.00 in0.0 mm 0.00 in0.0 mm
10:00 AM 38.4°F3.6°C 34.2°F1.2°C 85% Calm Calm -- 30.25 in1024.4 mb - 0.00 in0.0 mm 0.00 in0.0 mm
10:10 AM 39.5°F4.2°C 34.8°F1.6°C 83% Calm Calm 5.8 mph9.3 kmh 30.25 in1024.4 mb - 0.00 in0.0 mm 0.00 in0.0 mm
10:20 AM 40.2°F4.6°C 34.8°F1.6°C 81% 1.2 mph NW1.9 kmh NW 5.8 mph9.3 kmh 30.25 in1024.4 mb - 0.00 in0.0 mm 0.00 in0.0 mm
10:30 AM 40.7°F4.8°C 34.7°F1.5°C 79% Calm Calm -- 30.25 in1024.4 mb - 0.00 in0.0 mm 0.00 in0.0 mm
10:40 AM 41.3°F5.2°C 35.3°F1.8°C 79% 2.3 mph NNW3.7 kmh NNW 2.3 mph3.7 kmh 30.26 in1024.7 mb - 0.00 in0.0 mm 0.00 in0.0 mm
10:50 AM 42.4°F5.8°C 36.4°F2.4°C 79% 1.2 mph NNW1.9 kmh NNW 6.9 mph11.1 kmh 30.26 in1024.7 mb - 0.00 in0.0 mm 0.00 in0.0 mm
11:00 AM 43.4°F6.3°C 36.6°F2.6°C 77% Calm Calm 3.5 mph5.6 kmh 30.26 in1024.7 mb - 0.00 in0.0 mm 0.00 in0.0 mm
11:10 AM 43.9°F6.6°C 36.5°F2.5°C 75% 2.3 mph NW3.7 kmh NW 8.1 mph13.0 kmh 30.26 in1024.7 mb - 0.00 in0.0 mm 0.00 in0.0 mm
11:20 AM 44.1°F6.7°C 36.3°F2.4°C 74% 2.3 mph NNW3.7 kmh NNW 6.9 mph11.1 kmh 30.26 in1024.7 mb - 0.00 in0.0 mm 0.00 in0.0 mm
11:30 AM 44.3°F6.8°C 36.6°F2.6°C 74% 1.2 mph NW1.9 kmh NW 5.8 mph9.3 kmh 30.26 in1024.7 mb - 0.00 in0.0 mm 0.00 in0.0 mm
11:40 AM 44.6°F7.0°C 36.5°F2.5°C 73% 1.2 mph NW1.9 kmh NW 6.9 mph11.1 kmh 30.26 in1024.7 mb - 0.00 in0.0 mm 0.00 in0.0 mm
11:50 AM 44.5°F6.9°C 36.7°F2.6°C 74% 1.2 mph NNW1.9 kmh NNW 6.9 mph11.1 kmh 30.27 in1025.1 mb - 0.00 in0.0 mm 0.00 in0.0 mm
12:00 PM 44.5°F6.9°C 36.4°F2.4°C 73% 1.2 mph N1.9 kmh N 5.8 mph9.3 kmh 30.27 in1025.1 mb - 0.00 in0.0 mm 0.00 in0.0 mm
12:10 PM 44.4°F6.9°C 36.3°F2.4°C 73% 2.3 mph NNW3.7 kmh NNW 8.1 mph13.0 kmh 30.26 in1024.7 mb - 0.00 in0.0 mm 0.00 in0.0 mm
12:20 PM 44.7°F7.1°C 36.6°F2.6°C 73% 1.2 mph NW1.9 kmh NW 8.1 mph13.0 kmh 30.27 in1025.1 mb - 0.00 in0.0 mm 0.00 in0.0 mm
12:30 PM 44.3°F6.8°C 36.2°F2.3°C 73% Calm Calm -- 30.27 in1025.1 mb - 0.00 in0.0 mm 0.00 in0.0 mm
12:40 PM 44.3°F6.8°C 36.5°F2.5°C 74% 1.2 mph NW1.9 kmh NW 5.8 mph9.3 kmh 30.27 in1025.1 mb - 0.00 in0.0 mm 0.00 in0.0 mm
12:50 PM 44.3°F6.8°C 36.2°F2.3°C 73% 1.2 mph NNW1.9 kmh NNW 4.6 mph7.4 kmh 30.27 in1025.1 mb - 0.00 in0.0 mm 0.00 in0.0 mm
01:00 PM 44.5°F6.9°C 36.4°F2.4°C 73% 1.2 mph NW1.9 kmh NW 8.1 mph13.0 kmh 30.27 in1025.1 mb - 0.00 in0.0 mm 0.00 in0.0 mm
01:10 PM 44.1°F6.7°C 35.7°F2.1°C 72% 1.2 mph NW1.9 kmh NW 5.8 mph9.3 kmh 30.27 in1025.1 mb - 0.00 in0.0 mm 0.00 in0.0 mm
01:20 PM 43.9°F6.6°C 35.8°F2.1°C 73% 1.2 mph NNW1.9 kmh NNW 5.8 mph9.3 kmh 30.27 in1025.1 mb - 0.00 in0.0 mm 0.00 in0.0 mm
01:30 PM 43.6°F6.4°C 35.5°F1.9°C 73% 1.2 mph NNW1.9 kmh NNW 9.2 mph14.8 kmh 30.28 in1025.4 mb - 0.00 in0.0 mm 0.00 in0.0 mm
01:40 PM 43.4°F6.3°C 35.3°F1.8°C 73% 1.2 mph N1.9 kmh N 4.6 mph7.4 kmh 30.28 in1025.4 mb - 0.00 in0.0 mm 0.00 in0.0 mm
01:50 PM 43.4°F6.3°C 35.7°F2.1°C 74% 1.2 mph NW1.9 kmh NW 3.5 mph5.6 kmh 30.28 in1025.4 mb - 0.00 in0.0 mm 0.00 in0.0 mm
02:00 PM 43.4°F6.3°C 35.7°F2.1°C 74% Calm Calm -- 30.28 in1025.4 mb - 0.00 in0.0 mm 0.00 in0.0 mm
02:10 PM 43.3°F6.3°C 35.2°F1.8°C 73% 2.3 mph N3.7 kmh N 4.6 mph7.4 kmh 30.28 in1025.4 mb - 0.00 in0.0 mm 0.00 in0.0 mm
02:20 PM 43.2°F6.2°C 35.1°F1.7°C 73% Calm Calm 2.3 mph3.7 kmh 30.28 in1025.4 mb - 0.00 in0.0 mm 0.00 in0.0 mm
02:30 PM 43.1°F6.2°C 35.7°F2.1°C 75% Calm Calm 8.1 mph13.0 kmh 30.29 in1025.7 mb - 0.00 in0.0 mm 0.00 in0.0 mm
02:40 PM 42.9°F6.1°C 35.6°F2.0°C 75% 2.3 mph NW3.7 kmh NW 6.9 mph11.1 kmh 30.29 in1025.7 mb - 0.00 in0.0 mm 0.00 in0.0 mm
02:50 PM 42.7°F5.9°C 35.7°F2.1°C 76% Calm Calm -- 30.29 in1025.7 mb - 0.00 in0.0 mm 0.00 in0.0 mm
03:00 PM 42.5°F5.8°C 35.5°F1.9°C 76% 1.2 mph NW1.9 kmh NW 9.2 mph14.8 kmh 30.29 in1025.7 mb - 0.00 in0.0 mm 0.00 in0.0 mm
03:10 PM 42.3°F5.7°C 35.3°F1.8°C 76% Calm Calm 1.2 mph1.9 kmh 30.30 in1026.1 mb - 0.00 in0.0 mm 0.00 in0.0 mm
03:20 PM 42.0°F5.6°C 35.0°F1.7°C 76% 1.2 mph NNW1.9 kmh NNW 3.5 mph5.6 kmh 30.30 in1026.1 mb - 0.00 in0.0 mm 0.00 in0.0 mm
03:30 PM 41.8°F5.4°C 35.2°F1.8°C 77% Calm Calm -- 30.30 in1026.1 mb - 0.00 in0.0 mm 0.00 in0.0 mm
03:40 PM 41.6°F5.3°C 35.2°F1.8°C 78% Calm Calm -- 30.30 in1026.1 mb - 0.00 in0.0 mm 0.00 in0.0 mm
03:50 PM 41.2°F5.1°C 35.2°F1.8°C 79% Calm Calm 2.3 mph3.7 kmh 30.30 in1026.1 mb - 0.00 in0.0 mm 0.00 in0.0 mm
04:00 PM 40.8°F4.9°C 34.8°F1.6°C 79% Calm Calm 2.3 mph3.7 kmh 30.30 in1026.1 mb - 0.00 in0.0 mm 0.00 in0.0 mm
04:10 PM 40.4°F4.7°C 34.7°F1.5°C 80% 1.2 mph NW1.9 kmh NW 1.2 mph1.9 kmh 30.31 in1026.4 mb - 0.00 in0.0 mm 0.00 in0.0 mm
04:20 PM 40.1°F4.5°C 34.7°F1.5°C 81% Calm Calm 2.3 mph3.7 kmh 30.31 in1026.4 mb - 0.00 in0.0 mm 0.00 in0.0 mm
04:30 PM 39.8°F4.3°C 34.4°F1.3°C 81% 1.2 mph NW1.9 kmh NW 4.6 mph7.4 kmh 30.32 in1026.8 mb - 0.00 in0.0 mm 0.00 in0.0 mm
04:40 PM 39.5°F4.2°C 34.5°F1.4°C 82% 3.5 mph NW5.6 kmh NW 9.2 mph14.8 kmh 30.32 in1026.8 mb - 0.00 in0.0 mm 0.00 in0.0 mm
04:50 PM 39.5°F4.2°C 34.5°F1.4°C 82% 2.3 mph NNW3.7 kmh NNW 5.8 mph9.3 kmh 30.32 in1026.8 mb - 0.00 in0.0 mm 0.00 in0.0 mm
05:00 PM 39.4°F4.1°C 34.7°F1.5°C 83% Calm Calm -- 30.32 in1026.8 mb - 0.00 in0.0 mm 0.00 in0.0 mm
05:10 PM 39.3°F4.1°C 34.6°F1.4°C 83% Calm Calm 2.3 mph3.7 kmh 30.33 in1027.1 mb - 0.00 in0.0 mm 0.00 in0.0 mm
05:20 PM 39.2°F4.0°C 34.5°F1.4°C 83% 5.8 mph NNW9.3 kmh NNW 8.1 mph13.0 kmh 30.33 in1027.1 mb - 0.00 in0.0 mm 0.00 in0.0 mm
05:30 PM 39.3°F4.1°C 34.6°F1.4°C 83% 2.3 mph N3.7 kmh N 5.8 mph9.3 kmh 30.33 in1027.1 mb - 0.00 in0.0 mm 0.00 in0.0 mm
05:40 PM 39.3°F4.1°C 34.6°F1.4°C 83% 1.2 mph NW1.9 kmh NW 1.2 mph1.9 kmh 30.33 in1027.1 mb - 0.00 in0.0 mm 0.00 in0.0 mm
05:50 PM 39.2°F4.0°C 34.5°F1.4°C 83% 1.2 mph NNW1.9 kmh NNW 3.5 mph5.6 kmh 30.34 in1027.4 mb - 0.00 in0.0 mm 0.00 in0.0 mm
06:00 PM 39.1°F3.9°C 34.4°F1.3°C 83% 1.2 mph NW1.9 kmh NW 4.6 mph7.4 kmh 30.34 in1027.4 mb - 0.00 in0.0 mm 0.00 in0.0 mm
06:10 PM 39.0°F3.9°C 34.3°F1.3°C 83% 2.3 mph NNW3.7 kmh NNW 5.8 mph9.3 kmh 30.34 in1027.4 mb - 0.00 in0.0 mm 0.00 in0.0 mm
06:20 PM 38.9°F3.8°C 34.5°F1.4°C 84% 2.3 mph NNW3.7 kmh NNW 3.5 mph5.6 kmh 30.34 in1027.4 mb - 0.00 in0.0 mm 0.00 in0.0 mm
06:30 PM 38.8°F3.8°C 34.4°F1.3°C 84% 1.2 mph N1.9 kmh N 5.8 mph9.3 kmh 30.34 in1027.4 mb - 0.00 in0.0 mm 0.00 in0.0 mm
06:40 PM 38.6°F3.7°C 34.2°F1.2°C 84% Calm Calm 2.3 mph3.7 kmh 30.34 in1027.4 mb - 0.00 in0.0 mm 0.00 in0.0 mm
06:50 PM 38.5°F3.6°C 34.1°F1.2°C 84% 3.5 mph NW5.6 kmh NW 5.8 mph9.3 kmh 30.35 in1027.8 mb - 0.00 in0.0 mm 0.00 in0.0 mm
07:00 PM 38.4°F3.6°C 34.0°F1.1°C 84% Calm Calm 4.6 mph7.4 kmh 30.35 in1027.8 mb - 0.00 in0.0 mm 0.00 in0.0 mm
07:10 PM 38.3°F3.5°C 33.9°F1.1°C 84% Calm Calm 2.3 mph3.7 kmh 30.35 in1027.8 mb - 0.00 in0.0 mm 0.00 in0.0 mm
07:20 PM 38.3°F3.5°C 34.2°F1.2°C 85% 2.3 mph N3.7 kmh N 3.5 mph5.6 kmh 30.35 in1027.8 mb - 0.00 in0.0 mm 0.00 in0.0 mm
07:30 PM 38.3°F3.5°C 33.9°F1.1°C 84% 1.2 mph NNW1.9 kmh NNW 3.5 mph5.6 kmh 30.36 in1028.1 mb - 0.00 in0.0 mm 0.00 in0.0 mm
07:40 PM 38.2°F3.4°C 34.1°F1.2°C 85% 1.2 mph N1.9 kmh N 4.6 mph7.4 kmh 30.36 in1028.1 mb - 0.00 in0.0 mm 0.00 in0.0 mm
07:50 PM 38.3°F3.5°C 33.9°F1.1°C 84% 1.2 mph NNW1.9 kmh NNW 6.9 mph11.1 kmh 30.36 in1028.1 mb - 0.00 in0.0 mm 0.00 in0.0 mm
08:00 PM 38.3°F3.5°C 33.9°F1.1°C 84% 1.2 mph N1.9 kmh N 4.6 mph7.4 kmh 30.36 in1028.1 mb - 0.00 in0.0 mm 0.00 in0.0 mm
08:10 PM 38.4°F3.6°C 34.0°F1.1°C 84% 1.2 mph N1.9 kmh N 2.3 mph3.7 kmh 30.35 in1027.8 mb - 0.00 in0.0 mm 0.00 in0.0 mm
08:20 PM 38.4°F3.6°C 34.0°F1.1°C 84% Calm Calm 2.3 mph3.7 kmh 30.36 in1028.1 mb - 0.00 in0.0 mm 0.00 in0.0 mm
08:30 PM 38.4°F3.6°C 34.0°F1.1°C 84% Calm Calm -- 30.36 in1028.1 mb - 0.00 in0.0 mm 0.00 in0.0 mm
08:40 PM 38.4°F3.6°C 34.0°F1.1°C 84% Calm Calm -- 30.35 in1027.8 mb - 0.00 in0.0 mm 0.00 in0.0 mm
08:50 PM 38.2°F3.4°C 33.8°F1.0°C 84% Calm Calm -- 30.36 in1028.1 mb - 0.00 in0.0 mm 0.00 in0.0 mm
09:00 PM 37.8°F3.2°C 33.4°F0.8°C 84% Calm Calm -- 30.36 in1028.1 mb - 0.00 in0.0 mm 0.00 in0.0 mm
09:10 PM 37.5°F3.1°C 33.4°F0.8°C 85% Calm Calm -- 30.36 in1028.1 mb - 0.00 in0.0 mm 0.00 in0.0 mm
09:20 PM 37.1°F2.8°C 33.0°F0.6°C 85% Calm Calm -- 30.36 in1028.1 mb - 0.00 in0.0 mm 0.00 in0.0 mm
09:30 PM 36.7°F2.6°C 32.6°F0.3°C 85% Calm Calm -- 30.36 in1028.1 mb - 0.00 in0.0 mm 0.00 in0.0 mm
09:40 PM 36.3°F2.4°C 32.5°F0.3°C 86% Calm Calm -- 30.36 in1028.1 mb - 0.00 in0.0 mm 0.00 in0.0 mm
09:50 PM 35.9°F2.2°C 32.1°F0.1°C 86% Calm Calm -- 30.37 in1028.4 mb - 0.00 in0.0 mm 0.00 in0.0 mm
10:00 PM 35.8°F2.1°C 32.6°F0.3°C 88% Calm Calm -- 30.36 in1028.1 mb - 0.00 in0.0 mm 0.00 in0.0 mm
10:10 PM 36.0°F2.2°C 32.8°F0.4°C 88% Calm Calm -- 30.36 in1028.1 mb - 0.00 in0.0 mm 0.00 in0.0 mm
10:20 PM 36.3°F2.4°C 33.0°F0.6°C 88% 1.2 mph NW1.9 kmh NW 1.2 mph1.9 kmh 30.36 in1028.1 mb - 0.00 in0.0 mm 0.00 in0.0 mm
10:30 PM 36.6°F2.6°C 33.4°F0.8°C 88% Calm Calm -- 30.36 in1028.1 mb - 0.00 in0.0 mm 0.00 in0.0 mm
10:40 PM 36.7°F2.6°C 33.2°F0.7°C 87% Calm Calm -- 30.36 in1028.1 mb - 0.00 in0.0 mm 0.00 in0.0 mm
10:50 PM 36.6°F2.6°C 33.1°F0.6°C 87% Calm Calm -- 30.37 in1028.4 mb - 0.00 in0.0 mm 0.00 in0.0 mm
11:00 PM 36.5°F2.5°C 33.0°F0.6°C 87% Calm Calm -- 30.37 in1028.4 mb - 0.00 in0.0 mm 0.00 in0.0 mm
11:10 PM 36.4°F2.4°C 33.2°F0.7°C 88% Calm Calm 2.3 mph3.7 kmh 30.38 in1028.8 mb - 0.00 in0.0 mm 0.00 in0.0 mm
11:20 PM 36.4°F2.4°C 33.2°F0.7°C 88% Calm Calm 3.5 mph5.6 kmh 30.37 in1028.4 mb - 0.00 in0.0 mm 0.00 in0.0 mm
11:30 PM 36.4°F2.4°C 33.2°F0.7°C 88% Calm Calm -- 30.37 in1028.4 mb - 0.00 in0.0 mm 0.00 in0.0 mm
11:40 PM 36.6°F2.6°C 33.3°F0.7°C 88% Calm Calm 2.3 mph3.7 kmh 30.37 in1028.4 mb - 0.00 in0.0 mm 0.00 in0.0 mm
11:50 PM 36.7°F2.6°C 33.2°F0.7°C 87% Calm Calm -- 30.37 in1028.4 mb - 0.00 in0.0 mm 0.00 in0.0 mm